logo
Search for airport 
image banner adimage banner adimage banner ad
image banner ad

OPMF - Muzaffarabad

Located in Muzaffarabad, Pakistan

ICAO - OPMF, IATA - MFG

Data provided by Airmate  

General information

Coordinates: N34°20'21" E73°30'31"
Elevation is 2691 feet MSL.
 
View others Airports in Azad Kashmir

Operational data

Special qualification required
Current time UTC:
Current local time:
Weather at : - ( 0 km )
METAR: KSHV 131856Z 20011G25KT 10SM SCT180 29/07 A3021 RMK SLPNO
View NOTAMs / SUP AIP / TFR affecting this airport [VIEW]
Communications frequencies: [VIEW]

Runways:

RWY identifierQFULength (ft)Width (ft)SurfaceLDA (ft)
13132°296075ASP
31312°296075ASP

Airport contact information

Address: Muzaffarabad Pakistan

Satellite view of OPMF